Startpagina
METAR-TAF:

METAR-TAF

Vliegvelden :

Banská Bystrica, Slowakije

breedte: 48-38-17N, lengte: 019-08-03E, hoogte: 318 m

Actueel weer

Dit bericht is 27 minuten geleden gemaakt, om 19:00 UTC
Wind 2 kt uit variabele richting
Temperatuur 5°C
Vochtigheid 75%
Druk 1020 hPa
Zicht 10 km of meer
geen wolken onder 1500 m en geen cumulonimbus

METAR: LZSL 171900Z VRB02KT CAVOK 05/01 Q1020

Tijdstip: 20:27 (19:27 UTC)

Verwachting

Dit bericht is 2 uur en het 27 minuten geleden gemaakt, om 17:00 UTC
Verwachting geldig van 17 om 18 UTC tot 18 om 03 UTC
Wind 2 kt uit variabele richting
Zicht 10 km of meer
geen wolken onder 1500 m en geen cumulonimbus
Wijzigt naar
van 18 om 00 UTC tot 18 om 02 UTC
Zicht 10 km of meer
Gebroken wolken op 3500 ft

TAF: LZSL 171700Z 1718/1803 VRB02KT CAVOK BECMG 1800/1802 9999 BKN035

Waarnemingen en weersverwachtingen van meer dan 4000 vliegvelden (METAR en TAF).

De beschikbare stations zijn de gele en rode punten op de kaart.

Ga met uw muis naar het station om de naam te zien.

Klik dan om waarnemingen en weersverwachtingen te zien.

kaart wijzigen: klik op de groene knoppen met een zwart kruis om in te zoomen, op de groene knop met een streepje om uit te zoomen of op de groene pijlen voor aangrenzende kaarten.


METAR-TAF: